EFSA

Details ICAO EFSA (SVL)
Name Savonlinna
Region Finland
Timezone Europe/Helsinki (UTC+2.0)
Plans Departing 9
Arriving 11
Stats Elevation 311 ft / 95 m (AMSL)
Location 61.943063° 28.945134°
Runways 1
Magnetic Variation 11.064° E
Sunrise 2017-12-18 07:26:24 UTC / 2017-12-18 09:26:24 Local
Sunset 2017-12-18 12:37:53 UTC / 2017-12-18 14:37:53 Local
Advertisement - Login to hide

Runways

ID Width Length Bearing (true) Bearing (mag) Surface Threshold Offset Overrun Length
12 148 ft / 45 m 7,524 ft / 2,293 m 125.70° 114.64° Asphalt 0 ft / 0 m 0 ft / 0 m
30 148 ft / 45 m 7,524 ft / 2,293 m 305.74° 294.68° Asphalt 0 ft / 0 m 0 ft / 0 m

Approach Navaids

Runway Type Ident Frequency Range Bearing (true) Bearing (mag) Slope Elevation
12 Localiser SA 109.70 MHz 18 nm / 33 km 125.75° 114.68° - 311 ft / 95 m (AMSL)
12 Glidescope SA 109.70 MHz 10 nm / 19 km 125.72° 114.66° 3.00° 311 ft / 95 m (AMSL)

Map

Weather


0- 5 10 15 20 25 30 35+ Temperature / ° C

Clouds and Precipitation
Forecast for 2017-12-18 12:00 UTC. Updated 2 hours ago

Ground ~20,000 ft ~40,000 ft Winds

METAR

EFSA 181220Z 19006KT 140V220 9999 FEW010 SCT186 M01/M03 Q1017

TAF

Not found

Frequencies

Tower 118.80 MHz AFIS
Tower 119.70 MHz AFIS
Warning: Do not use this data for real-world aviation or navigation. No guarantee of current accuracy is given.